sensor_id;sensor_type;location;lat;lon;timestamp;P1;durP1;ratioP1;P2;durP2;ratioP2
55170;SDS011;41060;47.510;8.680;2023-12-20T00:00:37;2.47;;;1.38;;
55170;SDS011;41060;47.510;8.680;2023-12-20T00:03:04;7.03;;;3.15;;
55170;SDS011;41060;47.510;8.680;2023-12-20T00:05:30;6.85;;;2.63;;
55170;SDS011;41060;47.510;8.680;2023-12-20T00:07:58;8.27;;;3.72;;
55170;SDS011;41060;47.510;8.680;2023-12-20T00:10:25;12.80;;;2.58;;
55170;SDS011;41060;47.510;8.680;2023-12-20T00:12:52;3.85;;;2.92;;
55170;SDS011;41060;47.510;8.680;2023-12-20T00:15:20;5.88;;;3.13;;
55170;SDS011;41060;47.510;8.680;2023-12-20T00:17:47;5.72;;;2.83;;
55170;SDS011;41060;47.510;8.680;2023-12-20T00:20:14;5.53;;;3.08;;
55170;SDS011;41060;47.510;8.680;2023-12-20T00:22:41;5.43;;;2.40;;
55170;SDS011;41060;47.510;8.680;2023-12-20T00:25:08;5.70;;;2.55;;
55170;SDS011;41060;47.510;8.680;2023-12-20T00:27:35;4.05;;;2.20;;
55170;SDS011;41060;47.510;8.680;2023-12-20T00:30:01;6.47;;;2.60;;
55170;SDS011;41060;47.510;8.680;2023-12-20T00:32:30;5.95;;;2.80;;
55170;SDS011;41060;47.510;8.680;2023-12-20T00:34:57;4.70;;;3.13;;
55170;SDS011;41060;47.510;8.680;2023-12-20T00:37:23;4.90;;;2.75;;
55170;SDS011;41060;47.510;8.680;2023-12-20T00:39:51;5.25;;;2.67;;
55170;SDS011;41060;47.510;8.680;2023-12-20T00:42:17;6.78;;;3.08;;
55170;SDS011;41060;47.510;8.680;2023-12-20T00:44:44;6.93;;;3.00;;
55170;SDS011;41060;47.510;8.680;2023-12-20T00:47:11;5.70;;;2.95;;
55170;SDS011;41060;47.510;8.680;2023-12-20T00:49:39;5.32;;;2.88;;
55170;SDS011;41060;47.510;8.680;2023-12-20T00:52:06;4.60;;;2.83;;
55170;SDS011;41060;47.510;8.680;2023-12-20T00:54:33;7.00;;;3.30;;
55170;SDS011;41060;47.510;8.680;2023-12-20T00:57:00;6.13;;;2.78;;
55170;SDS011;41060;47.510;8.680;2023-12-20T00:59:26;5.93;;;2.97;;
55170;SDS011;41060;47.510;8.680;2023-12-20T01:01:54;6.75;;;3.45;;
55170;SDS011;41060;47.510;8.680;2023-12-20T01:04:20;6.15;;;3.17;;
55170;SDS011;41060;47.510;8.680;2023-12-20T01:06:51;6.15;;;2.72;;
55170;SDS011;41060;47.510;8.680;2023-12-20T01:09:18;6.55;;;2.45;;
55170;SDS011;41060;47.510;8.680;2023-12-20T01:11:48;6.38;;;3.42;;
55170;SDS011;41060;47.510;8.680;2023-12-20T01:14:15;7.70;;;3.25;;
55170;SDS011;41060;47.510;8.680;2023-12-20T01:16:42;4.75;;;2.67;;
55170;SDS011;41060;47.510;8.680;2023-12-20T01:19:09;7.70;;;3.38;;
55170;SDS011;41060;47.510;8.680;2023-12-20T01:21:35;6.63;;;3.03;;
55170;SDS011;41060;47.510;8.680;2023-12-20T01:24:04;5.57;;;3.08;;
55170;SDS011;41060;47.510;8.680;2023-12-20T01:26:31;5.22;;;2.50;;
55170;SDS011;41060;47.510;8.680;2023-12-20T01:28:58;5.30;;;2.40;;
55170;SDS011;41060;47.510;8.680;2023-12-20T01:31:25;7.68;;;3.00;;
55170;SDS011;41060;47.510;8.680;2023-12-20T01:33:52;7.38;;;2.38;;
55170;SDS011;41060;47.510;8.680;2023-12-20T01:36:19;5.40;;;2.95;;
55170;SDS011;41060;47.510;8.680;2023-12-20T01:38:46;5.07;;;2.97;;
55170;SDS011;41060;47.510;8.680;2023-12-20T01:41:14;4.82;;;3.45;;
55170;SDS011;41060;47.510;8.680;2023-12-20T01:43:41;4.82;;;2.58;;
55170;SDS011;41060;47.510;8.680;2023-12-20T01:46:08;4.88;;;2.42;;
55170;SDS011;41060;47.510;8.680;2023-12-20T01:48:35;4.25;;;2.28;;
55170;SDS011;41060;47.510;8.680;2023-12-20T01:51:02;5.80;;;3.40;;
55170;SDS011;41060;47.510;8.680;2023-12-20T01:53:30;6.38;;;2.97;;
55170;SDS011;41060;47.510;8.680;2023-12-20T01:55:57;7.68;;;3.30;;
55170;SDS011;41060;47.510;8.680;2023-12-20T01:58:28;5.93;;;2.25;;
55170;SDS011;41060;47.510;8.680;2023-12-20T02:00:56;5.88;;;3.20;;
55170;SDS011;41060;47.510;8.680;2023-12-20T02:03:23;5.22;;;2.40;;
55170;SDS011;41060;47.510;8.680;2023-12-20T02:05:50;8.00;;;2.97;;
55170;SDS011;41060;47.510;8.680;2023-12-20T02:08:18;6.78;;;2.55;;
55170;SDS011;41060;47.510;8.680;2023-12-20T02:10:44;3.50;;;2.15;;
55170;SDS011;41060;47.510;8.680;2023-12-20T02:13:11;6.15;;;3.28;;
55170;SDS011;41060;47.510;8.680;2023-12-20T02:15:40;10.18;;;3.35;;
55170;SDS011;41060;47.510;8.680;2023-12-20T02:18:08;5.63;;;2.65;;
55170;SDS011;41060;47.510;8.680;2023-12-20T02:20:35;6.70;;;3.25;;
55170;SDS011;41060;47.510;8.680;2023-12-20T02:23:04;5.05;;;2.60;;
55170;SDS011;41060;47.510;8.680;2023-12-20T02:28:03;5.95;;;3.38;;
55170;SDS011;41060;47.510;8.680;2023-12-20T02:30:31;5.22;;;2.85;;
55170;SDS011;41060;47.510;8.680;2023-12-20T02:32:59;6.47;;;3.55;;
55170;SDS011;41060;47.510;8.680;2023-12-20T02:35:26;4.95;;;2.00;;
55170;SDS011;41060;47.510;8.680;2023-12-20T02:37:53;4.72;;;2.80;;
55170;SDS011;41060;47.510;8.680;2023-12-20T02:40:21;3.15;;;2.25;;
55170;SDS011;41060;47.510;8.680;2023-12-20T02:42:48;5.65;;;2.97;;
55170;SDS011;41060;47.510;8.680;2023-12-20T02:45:15;4.53;;;2.50;;
55170;SDS011;41060;47.510;8.680;2023-12-20T02:47:41;6.20;;;2.75;;
55170;SDS011;41060;47.510;8.680;2023-12-20T02:50:08;11.48;;;3.22;;
55170;SDS011;41060;47.510;8.680;2023-12-20T02:52:35;4.28;;;2.38;;
55170;SDS011;41060;47.510;8.680;2023-12-20T02:55:02;8.95;;;2.88;;
55170;SDS011;41060;47.510;8.680;2023-12-20T02:57:31;5.70;;;3.90;;
55170;SDS011;41060;47.510;8.680;2023-12-20T02:59:58;5.25;;;2.45;;
55170;SDS011;41060;47.510;8.680;2023-12-20T03:02:25;7.07;;;3.22;;
55170;SDS011;41060;47.510;8.680;2023-12-20T03:04:52;5.10;;;3.03;;
55170;SDS011;41060;47.510;8.680;2023-12-20T03:07:20;7.35;;;3.35;;
55170;SDS011;41060;47.510;8.680;2023-12-20T03:09:46;7.18;;;3.72;;
55170;SDS011;41060;47.510;8.680;2023-12-20T03:12:14;6.72;;;2.53;;
55170;SDS011;41060;47.510;8.680;2023-12-20T03:14:42;5.85;;;3.33;;
55170;SDS011;41060;47.510;8.680;2023-12-20T03:17:09;8.77;;;3.28;;
55170;SDS011;41060;47.510;8.680;2023-12-20T03:19:36;7.20;;;3.03;;
55170;SDS011;41060;47.510;8.680;2023-12-20T03:22:03;5.13;;;2.90;;
55170;SDS011;41060;47.510;8.680;2023-12-20T03:24:30;4.65;;;2.60;;
55170;SDS011;41060;47.510;8.680;2023-12-20T03:26:57;5.63;;;3.05;;
55170;SDS011;41060;47.510;8.680;2023-12-20T03:29:23;7.75;;;2.97;;
55170;SDS011;41060;47.510;8.680;2023-12-20T03:31:51;5.00;;;3.15;;
55170;SDS011;41060;47.510;8.680;2023-12-20T03:34:18;4.80;;;2.35;;
55170;SDS011;41060;47.510;8.680;2023-12-20T03:36:45;5.95;;;2.75;;
55170;SDS011;41060;47.510;8.680;2023-12-20T03:39:13;5.07;;;2.45;;
55170;SDS011;41060;47.510;8.680;2023-12-20T03:41:40;3.72;;;2.55;;
55170;SDS011;41060;47.510;8.680;2023-12-20T03:44:06;6.50;;;3.45;;
55170;SDS011;41060;47.510;8.680;2023-12-20T03:46:33;5.93;;;2.75;;
55170;SDS011;41060;47.510;8.680;2023-12-20T03:49:02;7.05;;;2.85;;
55170;SDS011;41060;47.510;8.680;2023-12-20T03:51:30;10.70;;;4.00;;
55170;SDS011;41060;47.510;8.680;2023-12-20T03:53:57;9.38;;;3.85;;
55170;SDS011;41060;47.510;8.680;2023-12-20T03:56:24;6.78;;;3.28;;
55170;SDS011;41060;47.510;8.680;2023-12-20T03:58:50;3.42;;;2.67;;
55170;SDS011;41060;47.510;8.680;2023-12-20T04:01:17;6.88;;;4.15;;
55170;SDS011;41060;47.510;8.680;2023-12-20T04:03:44;7.15;;;3.47;;
55170;SDS011;41060;47.510;8.680;2023-12-20T04:06:17;7.78;;;4.28;;
55170;SDS011;41060;47.510;8.680;2023-12-20T04:08:44;5.78;;;3.45;;
55170;SDS011;41060;47.510;8.680;2023-12-20T04:11:11;5.78;;;3.17;;
55170;SDS011;41060;47.510;8.680;2023-12-20T04:13:37;6.00;;;3.08;;
55170;SDS011;41060;47.510;8.680;2023-12-20T04:16:05;5.90;;;2.35;;
55170;SDS011;41060;47.510;8.680;2023-12-20T04:18:32;5.60;;;3.28;;
55170;SDS011;41060;47.510;8.680;2023-12-20T04:20:58;7.15;;;3.10;;
55170;SDS011;41060;47.510;8.680;2023-12-20T04:23:27;4.47;;;3.13;;
55170;SDS011;41060;47.510;8.680;2023-12-20T04:25:54;4.38;;;3.10;;
55170;SDS011;41060;47.510;8.680;2023-12-20T04:28:21;6.13;;;2.80;;
55170;SDS011;41060;47.510;8.680;2023-12-20T04:30:49;4.95;;;2.60;;
55170;SDS011;41060;47.510;8.680;2023-12-20T04:33:15;6.32;;;3.28;;
55170;SDS011;41060;47.510;8.680;2023-12-20T04:35:42;5.47;;;2.25;;
55170;SDS011;41060;47.510;8.680;2023-12-20T04:38:11;5.82;;;3.35;;
55170;SDS011;41060;47.510;8.680;2023-12-20T04:40:39;4.38;;;3.17;;
55170;SDS011;41060;47.510;8.680;2023-12-20T04:43:06;4.97;;;2.50;;
55170;SDS011;41060;47.510;8.680;2023-12-20T04:45:34;3.58;;;2.30;;
55170;SDS011;41060;47.510;8.680;2023-12-20T04:48:03;5.00;;;2.13;;
55170;SDS011;41060;47.510;8.680;2023-12-20T04:50:30;4.75;;;2.60;;
55170;SDS011;41060;47.510;8.680;2023-12-20T04:52:57;4.65;;;3.28;;
55170;SDS011;41060;47.510;8.680;2023-12-20T04:55:26;4.75;;;2.42;;
55170;SDS011;41060;47.510;8.680;2023-12-20T04:57:53;5.70;;;2.58;;
55170;SDS011;41060;47.510;8.680;2023-12-20T05:00:22;5.85;;;2.72;;
55170;SDS011;41060;47.510;8.680;2023-12-20T05:02:48;4.10;;;2.38;;
55170;SDS011;41060;47.510;8.680;2023-12-20T05:05:15;4.93;;;2.55;;
55170;SDS011;41060;47.510;8.680;2023-12-20T05:07:43;5.43;;;3.65;;
55170;SDS011;41060;47.510;8.680;2023-12-20T05:10:10;5.18;;;2.50;;
55170;SDS011;41060;47.510;8.680;2023-12-20T05:12:36;5.13;;;2.72;;
55170;SDS011;41060;47.510;8.680;2023-12-20T05:15:06;5.88;;;2.63;;
55170;SDS011;41060;47.510;8.680;2023-12-20T05:17:33;4.85;;;2.65;;
55170;SDS011;41060;47.510;8.680;2023-12-20T05:20:00;6.00;;;2.40;;
55170;SDS011;41060;47.510;8.680;2023-12-20T05:22:27;4.18;;;2.45;;
55170;SDS011;41060;47.510;8.680;2023-12-20T05:24:53;3.60;;;2.63;;
55170;SDS011;41060;47.510;8.680;2023-12-20T05:27:20;5.82;;;3.28;;
55170;SDS011;41060;47.510;8.680;2023-12-20T05:29:47;4.47;;;3.00;;
55170;SDS011;41060;47.510;8.680;2023-12-20T05:32:16;5.82;;;3.55;;
55170;SDS011;41060;47.510;8.680;2023-12-20T05:34:43;4.25;;;2.50;;
55170;SDS011;41060;47.510;8.680;2023-12-20T05:37:10;3.88;;;2.50;;
55170;SDS011;41060;47.510;8.680;2023-12-20T05:39:37;4.68;;;2.63;;
55170;SDS011;41060;47.510;8.680;2023-12-20T05:42:04;3.90;;;2.60;;
55170;SDS011;41060;47.510;8.680;2023-12-20T05:44:31;4.45;;;1.90;;
55170;SDS011;41060;47.510;8.680;2023-12-20T05:46:58;6.68;;;2.53;;
55170;SDS011;41060;47.510;8.680;2023-12-20T05:49:26;6.95;;;3.33;;
55170;SDS011;41060;47.510;8.680;2023-12-20T05:51:53;5.72;;;3.05;;
55170;SDS011;41060;47.510;8.680;2023-12-20T05:54:21;5.03;;;3.17;;
55170;SDS011;41060;47.510;8.680;2023-12-20T05:56:48;6.80;;;3.03;;
55170;SDS011;41060;47.510;8.680;2023-12-20T05:59:16;6.72;;;3.00;;
55170;SDS011;41060;47.510;8.680;2023-12-20T06:01:43;4.10;;;2.83;;
55170;SDS011;41060;47.510;8.680;2023-12-20T06:04:09;5.10;;;3.08;;
55170;SDS011;41060;47.510;8.680;2023-12-20T06:06:41;6.45;;;3.05;;
55170;SDS011;41060;47.510;8.680;2023-12-20T06:09:08;7.22;;;2.80;;
55170;SDS011;41060;47.510;8.680;2023-12-20T06:11:34;5.05;;;3.42;;
55170;SDS011;41060;47.510;8.680;2023-12-20T06:14:05;6.15;;;2.83;;
55170;SDS011;41060;47.510;8.680;2023-12-20T06:16:31;5.05;;;2.90;;
55170;SDS011;41060;47.510;8.680;2023-12-20T06:18:58;4.30;;;2.63;;
55170;SDS011;41060;47.510;8.680;2023-12-20T06:21:25;4.60;;;2.85;;
55170;SDS011;41060;47.510;8.680;2023-12-20T06:23:53;5.32;;;3.05;;
55170;SDS011;41060;47.510;8.680;2023-12-20T06:26:20;5.13;;;2.63;;
55170;SDS011;41060;47.510;8.680;2023-12-20T06:28:47;4.15;;;2.53;;
55170;SDS011;41060;47.510;8.680;2023-12-20T06:31:14;6.13;;;2.60;;
55170;SDS011;41060;47.510;8.680;2023-12-20T06:33:40;4.63;;;2.90;;
55170;SDS011;41060;47.510;8.680;2023-12-20T06:36:10;3.55;;;2.33;;
55170;SDS011;41060;47.510;8.680;2023-12-20T06:38:38;3.58;;;2.53;;
55170;SDS011;41060;47.510;8.680;2023-12-20T06:41:06;5.32;;;2.97;;
55170;SDS011;41060;47.510;8.680;2023-12-20T06:43:33;6.50;;;2.25;;
55170;SDS011;41060;47.510;8.680;2023-12-20T06:46:00;3.95;;;2.47;;
55170;SDS011;41060;47.510;8.680;2023-12-20T06:48:27;3.97;;;2.42;;
55170;SDS011;41060;47.510;8.680;2023-12-20T06:50:54;4.18;;;2.63;;
55170;SDS011;41060;47.510;8.680;2023-12-20T06:53:21;5.68;;;2.55;;
55170;SDS011;41060;47.510;8.680;2023-12-20T06:55:47;4.22;;;2.90;;
55170;SDS011;41060;47.510;8.680;2023-12-20T06:58:16;2.95;;;2.17;;
55170;SDS011;41060;47.510;8.680;2023-12-20T07:00:42;3.25;;;2.60;;
55170;SDS011;41060;47.510;8.680;2023-12-20T07:03:09;3.90;;;2.95;;
55170;SDS011;41060;47.510;8.680;2023-12-20T07:05:36;4.40;;;3.00;;
55170;SDS011;41060;47.510;8.680;2023-12-20T07:08:04;6.60;;;2.60;;
55170;SDS011;41060;47.510;8.680;2023-12-20T07:10:31;5.68;;;2.92;;
55170;SDS011;41060;47.510;8.680;2023-12-20T07:12:59;4.28;;;2.28;;
55170;SDS011;41060;47.510;8.680;2023-12-20T07:15:27;6.15;;;3.17;;
55170;SDS011;41060;47.510;8.680;2023-12-20T07:17:54;3.95;;;2.50;;
55170;SDS011;41060;47.510;8.680;2023-12-20T07:20:22;4.57;;;2.15;;
55170;SDS011;41060;47.510;8.680;2023-12-20T07:22:48;5.45;;;3.08;;
55170;SDS011;41060;47.510;8.680;2023-12-20T07:25:15;5.00;;;2.65;;
55170;SDS011;41060;47.510;8.680;2023-12-20T07:27:43;5.07;;;2.60;;
55170;SDS011;41060;47.510;8.680;2023-12-20T07:30:10;7.15;;;3.67;;
55170;SDS011;41060;47.510;8.680;2023-12-20T07:32:39;4.13;;;2.72;;
55170;SDS011;41060;47.510;8.680;2023-12-20T07:35:06;4.80;;;2.63;;
55170;SDS011;41060;47.510;8.680;2023-12-20T07:37:33;3.65;;;2.78;;
55170;SDS011;41060;47.510;8.680;2023-12-20T07:40:00;3.75;;;2.45;;
55170;SDS011;41060;47.510;8.680;2023-12-20T07:42:27;5.97;;;3.65;;
55170;SDS011;41060;47.510;8.680;2023-12-20T07:44:53;6.63;;;2.78;;
55170;SDS011;41060;47.510;8.680;2023-12-20T07:47:20;5.85;;;2.83;;
55170;SDS011;41060;47.510;8.680;2023-12-20T07:49:49;5.43;;;2.67;;
55170;SDS011;41060;47.510;8.680;2023-12-20T07:52:16;3.92;;;2.03;;
55170;SDS011;41060;47.510;8.680;2023-12-20T07:54:43;5.10;;;1.60;;
55170;SDS011;41060;47.510;8.680;2023-12-20T07:57:10;4.05;;;2.03;;
55170;SDS011;41060;47.510;8.680;2023-12-20T07:59:37;3.80;;;2.13;;
55170;SDS011;41060;47.510;8.680;2023-12-20T08:02:04;3.38;;;2.33;;
55170;SDS011;41060;47.510;8.680;2023-12-20T08:04:31;3.17;;;1.88;;
55170;SDS011;41060;47.510;8.680;2023-12-20T08:06:59;3.83;;;2.13;;
55170;SDS011;41060;47.510;8.680;2023-12-20T08:09:26;3.88;;;2.03;;
55170;SDS011;41060;47.510;8.680;2023-12-20T08:11:54;2.28;;;1.30;;
55170;SDS011;41060;47.510;8.680;2023-12-20T08:14:20;2.90;;;1.73;;
55170;SDS011;41060;47.510;8.680;2023-12-20T08:16:47;3.05;;;2.25;;
55170;SDS011;41060;47.510;8.680;2023-12-20T08:19:14;4.40;;;2.28;;
55170;SDS011;41060;47.510;8.680;2023-12-20T08:21:41;3.13;;;2.08;;
55170;SDS011;41060;47.510;8.680;2023-12-20T08:24:09;4.55;;;2.25;;
55170;SDS011;41060;47.510;8.680;2023-12-20T08:26:36;4.72;;;2.42;;
55170;SDS011;41060;47.510;8.680;2023-12-20T08:29:03;4.47;;;2.08;;
55170;SDS011;41060;47.510;8.680;2023-12-20T08:31:30;4.30;;;2.20;;
55170;SDS011;41060;47.510;8.680;2023-12-20T08:33:57;3.63;;;2.13;;
55170;SDS011;41060;47.510;8.680;2023-12-20T08:36:24;3.58;;;2.03;;
55170;SDS011;41060;47.510;8.680;2023-12-20T08:38:50;3.05;;;1.70;;
55170;SDS011;41060;47.510;8.680;2023-12-20T08:41:19;3.35;;;1.92;;
55170;SDS011;41060;47.510;8.680;2023-12-20T08:43:46;3.13;;;1.52;;
55170;SDS011;41060;47.510;8.680;2023-12-20T08:46:13;5.22;;;2.92;;
55170;SDS011;41060;47.510;8.680;2023-12-20T08:48:41;2.55;;;1.58;;
55170;SDS011;41060;47.510;8.680;2023-12-20T08:51:07;3.47;;;1.77;;
55170;SDS011;41060;47.510;8.680;2023-12-20T08:53:34;4.72;;;2.50;;
55170;SDS011;41060;47.510;8.680;2023-12-20T08:56:04;3.30;;;1.83;;
55170;SDS011;41060;47.510;8.680;2023-12-20T08:58:32;1.88;;;1.05;;
55170;SDS011;41060;47.510;8.680;2023-12-20T09:01:01;3.42;;;2.30;;
55170;SDS011;41060;47.510;8.680;2023-12-20T09:03:28;5.05;;;2.60;;
55170;SDS011;41060;47.510;8.680;2023-12-20T09:05:54;4.30;;;2.35;;
55170;SDS011;41060;47.510;8.680;2023-12-20T09:08:21;3.97;;;2.40;;
55170;SDS011;41060;47.510;8.680;2023-12-20T09:10:48;6.72;;;3.08;;
55170;SDS011;41060;47.510;8.680;2023-12-20T09:13:15;4.72;;;2.63;;
55170;SDS011;41060;47.510;8.680;2023-12-20T09:15:43;3.95;;;2.13;;
55170;SDS011;41060;47.510;8.680;2023-12-20T09:18:11;4.22;;;2.17;;
55170;SDS011;41060;47.510;8.680;2023-12-20T09:20:38;3.78;;;1.80;;
55170;SDS011;41060;47.510;8.680;2023-12-20T09:23:04;3.00;;;1.60;;
55170;SDS011;41060;47.510;8.680;2023-12-20T09:25:31;0.82;;;0.77;;
55170;SDS011;41060;47.510;8.680;2023-12-20T09:27:58;7.28;;;3.08;;
55170;SDS011;41060;47.510;8.680;2023-12-20T09:30:25;4.45;;;1.83;;
55170;SDS011;41060;47.510;8.680;2023-12-20T09:35:33;5.35;;;2.72;;
55170;SDS011;41060;47.510;8.680;2023-12-20T09:38:00;4.50;;;2.22;;
55170;SDS011;41060;47.510;8.680;2023-12-20T09:40:27;4.05;;;1.98;;
55170;SDS011;41060;47.510;8.680;2023-12-20T09:42:56;4.47;;;2.75;;
55170;SDS011;41060;47.510;8.680;2023-12-20T09:45:24;3.22;;;1.77;;
55170;SDS011;41060;47.510;8.680;2023-12-20T09:47:51;4.07;;;2.58;;
55170;SDS011;41060;47.510;8.680;2023-12-20T09:50:19;4.13;;;1.90;;
55170;SDS011;41060;47.510;8.680;2023-12-20T09:52:50;4.45;;;2.95;;
55170;SDS011;41060;47.510;8.680;2023-12-20T09:55:21;3.08;;;1.88;;
55170;SDS011;41060;47.510;8.680;2023-12-20T09:57:49;4.90;;;2.33;;
55170;SDS011;41060;47.510;8.680;2023-12-20T10:00:15;5.40;;;2.75;;
55170;SDS011;41060;47.510;8.680;2023-12-20T10:02:45;5.32;;;2.00;;
55170;SDS011;41060;47.510;8.680;2023-12-20T10:05:17;6.05;;;2.92;;
55170;SDS011;41060;47.510;8.680;2023-12-20T10:08:01;5.53;;;3.08;;
55170;SDS011;41060;47.510;8.680;2023-12-20T10:10:28;5.28;;;2.53;;
55170;SDS011;41060;47.510;8.680;2023-12-20T10:13:02;3.55;;;2.58;;
55170;SDS011;41060;47.510;8.680;2023-12-20T10:15:31;4.55;;;3.65;;
55170;SDS011;41060;47.510;8.680;2023-12-20T10:17:59;3.38;;;2.13;;
55170;SDS011;41060;47.510;8.680;2023-12-20T10:20:26;7.25;;;3.15;;
55170;SDS011;41060;47.510;8.680;2023-12-20T10:22:54;5.03;;;2.95;;
55170;SDS011;41060;47.510;8.680;2023-12-20T10:25:22;6.30;;;2.80;;
55170;SDS011;41060;47.510;8.680;2023-12-20T10:27:50;5.78;;;2.60;;
55170;SDS011;41060;47.510;8.680;2023-12-20T10:30:34;4.72;;;2.50;;
55170;SDS011;41060;47.510;8.680;2023-12-20T10:33:02;1.80;;;1.17;;
55170;SDS011;41060;47.510;8.680;2023-12-20T10:35:28;6.10;;;3.03;;
55170;SDS011;41060;47.510;8.680;2023-12-20T10:38:02;4.88;;;2.60;;
55170;SDS011;41060;47.510;8.680;2023-12-20T10:40:31;3.35;;;2.22;;
55170;SDS011;41060;47.510;8.680;2023-12-20T10:43:03;5.97;;;3.13;;
55170;SDS011;41060;47.510;8.680;2023-12-20T10:45:32;4.80;;;2.53;;
55170;SDS011;41060;47.510;8.680;2023-12-20T10:48:00;4.93;;;2.70;;
55170;SDS011;41060;47.510;8.680;2023-12-20T10:50:28;7.13;;;2.70;;
55170;SDS011;41060;47.510;8.680;2023-12-20T10:52:58;2.08;;;1.35;;
55170;SDS011;41060;47.510;8.680;2023-12-20T10:55:25;3.85;;;2.22;;
55170;SDS011;41060;47.510;8.680;2023-12-20T10:57:54;2.00;;;1.30;;
55170;SDS011;41060;47.510;8.680;2023-12-20T11:00:28;4.50;;;2.20;;
55170;SDS011;41060;47.510;8.680;2023-12-20T11:02:56;3.72;;;2.10;;
55170;SDS011;41060;47.510;8.680;2023-12-20T11:05:30;4.47;;;1.95;;
55170;SDS011;41060;47.510;8.680;2023-12-20T11:08:06;3.22;;;1.67;;
55170;SDS011;41060;47.510;8.680;2023-12-20T11:10:38;4.55;;;2.15;;
55170;SDS011;41060;47.510;8.680;2023-12-20T11:13:15;4.03;;;2.20;;
55170;SDS011;41060;47.510;8.680;2023-12-20T11:18:12;2.50;;;1.40;;
55170;SDS011;41060;47.510;8.680;2023-12-20T11:20:40;2.80;;;1.73;;
55170;SDS011;41060;47.510;8.680;2023-12-20T11:23:08;3.47;;;1.20;;
55170;SDS011;41060;47.510;8.680;2023-12-20T11:25:45;2.08;;;1.23;;
55170;SDS011;41060;47.510;8.680;2023-12-20T11:28:15;1.88;;;1.42;;
55170;SDS011;41060;47.510;8.680;2023-12-20T11:30:46;1.45;;;0.95;;
55170;SDS011;41060;47.510;8.680;2023-12-20T11:33:14;1.27;;;0.93;;
55170;SDS011;41060;47.510;8.680;2023-12-20T11:39:22;0.70;;;0.50;;
55170;SDS011;41060;47.510;8.680;2023-12-20T11:41:49;1.40;;;0.82;;
55170;SDS011;41060;47.510;8.680;2023-12-20T11:44:18;0.77;;;0.55;;
55170;SDS011;41060;47.510;8.680;2023-12-20T11:46:45;2.13;;;1.15;;
55170;SDS011;41060;47.510;8.680;2023-12-20T11:49:13;1.92;;;1.02;;
55170;SDS011;41060;47.510;8.680;2023-12-20T11:51:40;1.13;;;0.77;;
55170;SDS011;41060;47.510;8.680;2023-12-20T11:54:07;2.38;;;0.80;;
55170;SDS011;41060;47.510;8.680;2023-12-20T11:56:36;2.28;;;1.50;;
55170;SDS011;41060;47.510;8.680;2023-12-20T11:59:03;1.20;;;0.90;;
55170;SDS011;41060;47.510;8.680;2023-12-20T12:01:32;1.00;;;0.60;;
55170;SDS011;41060;47.510;8.680;2023-12-20T12:04:02;1.85;;;0.60;;
55170;SDS011;41060;47.510;8.680;2023-12-20T12:06:29;0.98;;;0.70;;
55170;SDS011;41060;47.510;8.680;2023-12-20T12:08:56;1.23;;;0.93;;
55170;SDS011;41060;47.510;8.680;2023-12-20T12:11:23;1.00;;;0.60;;
55170;SDS011;41060;47.510;8.680;2023-12-20T12:13:50;0.40;;;0.38;;
55170;SDS011;41060;47.510;8.680;2023-12-20T12:16:17;1.10;;;0.82;;
55170;SDS011;41060;47.510;8.680;2023-12-20T12:18:46;0.98;;;0.68;;
55170;SDS011;41060;47.510;8.680;2023-12-20T12:21:20;1.77;;;1.58;;
55170;SDS011;41060;47.510;8.680;2023-12-20T12:23:48;1.95;;;0.50;;
55170;SDS011;41060;47.510;8.680;2023-12-20T12:26:16;1.10;;;0.70;;
55170;SDS011;41060;47.510;8.680;2023-12-20T12:28:43;0.85;;;0.70;;
55170;SDS011;41060;47.510;8.680;2023-12-20T12:31:13;0.80;;;0.65;;
55170;SDS011;41060;47.510;8.680;2023-12-20T12:33:41;1.00;;;0.57;;
55170;SDS011;41060;47.510;8.680;2023-12-20T12:36:13;3.13;;;0.80;;
55170;SDS011;41060;47.510;8.680;2023-12-20T12:38:43;0.70;;;0.50;;
55170;SDS011;41060;47.510;8.680;2023-12-20T12:41:12;0.80;;;0.50;;
55170;SDS011;41060;47.510;8.680;2023-12-20T12:43:40;0.95;;;0.50;;
55170;SDS011;41060;47.510;8.680;2023-12-20T12:46:07;0.63;;;0.50;;
55170;SDS011;41060;47.510;8.680;2023-12-20T12:48:34;1.23;;;0.40;;
55170;SDS011;41060;47.510;8.680;2023-12-20T12:51:01;0.77;;;0.73;;
55170;SDS011;41060;47.510;8.680;2023-12-20T12:53:29;1.25;;;0.65;;
55170;SDS011;41060;47.510;8.680;2023-12-20T12:55:56;0.47;;;0.30;;
55170;SDS011;41060;47.510;8.680;2023-12-20T12:58:22;1.10;;;0.52;;
55170;SDS011;41060;47.510;8.680;2023-12-20T13:00:51;0.80;;;0.63;;
55170;SDS011;41060;47.510;8.680;2023-12-20T13:03:17;0.47;;;0.43;;
55170;SDS011;41060;47.510;8.680;2023-12-20T13:05:44;0.80;;;0.40;;
55170;SDS011;41060;47.510;8.680;2023-12-20T13:08:12;1.08;;;0.60;;
55170;SDS011;41060;47.510;8.680;2023-12-20T13:10:41;0.50;;;0.40;;
55170;SDS011;41060;47.510;8.680;2023-12-20T13:13:07;0.93;;;0.47;;
55170;SDS011;41060;47.510;8.680;2023-12-20T13:15:34;1.55;;;1.05;;
55170;SDS011;41060;47.510;8.680;2023-12-20T13:18:01;1.65;;;0.63;;
55170;SDS011;41060;47.510;8.680;2023-12-20T13:20:29;1.13;;;0.70;;
55170;SDS011;41060;47.510;8.680;2023-12-20T13:22:57;1.75;;;1.15;;
55170;SDS011;41060;47.510;8.680;2023-12-20T13:25:23;0.65;;;0.50;;
55170;SDS011;41060;47.510;8.680;2023-12-20T13:27:51;1.80;;;0.80;;
55170;SDS011;41060;47.510;8.680;2023-12-20T13:30:20;0.60;;;0.40;;
55170;SDS011;41060;47.510;8.680;2023-12-20T13:32:47;0.70;;;0.47;;
55170;SDS011;41060;47.510;8.680;2023-12-20T13:35:14;0.45;;;0.35;;
55170;SDS011;41060;47.510;8.680;2023-12-20T13:37:41;1.20;;;0.80;;
55170;SDS011;41060;47.510;8.680;2023-12-20T13:40:09;1.38;;;0.68;;
55170;SDS011;41060;47.510;8.680;2023-12-20T13:42:37;1.42;;;0.70;;
55170;SDS011;41060;47.510;8.680;2023-12-20T13:45:07;1.65;;;0.70;;
55170;SDS011;41060;47.510;8.680;2023-12-20T13:47:34;1.40;;;0.57;;
55170;SDS011;41060;47.510;8.680;2023-12-20T13:50:01;1.45;;;0.77;;
55170;SDS011;41060;47.510;8.680;2023-12-20T13:52:29;2.83;;;0.90;;
55170;SDS011;41060;47.510;8.680;2023-12-20T13:54:56;0.60;;;0.40;;
55170;SDS011;41060;47.510;8.680;2023-12-20T13:57:22;3.10;;;0.70;;
55170;SDS011;41060;47.510;8.680;2023-12-20T13:59:50;0.85;;;0.50;;
55170;SDS011;41060;47.510;8.680;2023-12-20T14:02:18;0.70;;;0.50;;
55170;SDS011;41060;47.510;8.680;2023-12-20T14:04:44;0.68;;;0.60;;
55170;SDS011;41060;47.510;8.680;2023-12-20T14:07:12;3.28;;;0.60;;
55170;SDS011;41060;47.510;8.680;2023-12-20T14:09:38;0.93;;;0.60;;
55170;SDS011;41060;47.510;8.680;2023-12-20T14:12:10;2.15;;;1.10;;
55170;SDS011;41060;47.510;8.680;2023-12-20T14:14:37;1.38;;;0.82;;
55170;SDS011;41060;47.510;8.680;2023-12-20T14:17:04;3.13;;;0.93;;
55170;SDS011;41060;47.510;8.680;2023-12-20T14:19:33;4.57;;;1.30;;
55170;SDS011;41060;47.510;8.680;2023-12-20T14:22:00;2.60;;;0.80;;
55170;SDS011;41060;47.510;8.680;2023-12-20T14:24:28;1.13;;;0.70;;
55170;SDS011;41060;47.510;8.680;2023-12-20T14:26:55;3.13;;;1.20;;
55170;SDS011;41060;47.510;8.680;2023-12-20T14:29:22;1.85;;;0.80;;
55170;SDS011;41060;47.510;8.680;2023-12-20T14:31:48;1.73;;;1.42;;
55170;SDS011;41060;47.510;8.680;2023-12-20T14:34:15;4.10;;;1.20;;
55170;SDS011;41060;47.510;8.680;2023-12-20T14:36:46;1.88;;;0.93;;
55170;SDS011;41060;47.510;8.680;2023-12-20T14:39:12;1.55;;;0.63;;
55170;SDS011;41060;47.510;8.680;2023-12-20T14:41:39;0.63;;;0.47;;
55170;SDS011;41060;47.510;8.680;2023-12-20T14:44:06;1.48;;;0.75;;
55170;SDS011;41060;47.510;8.680;2023-12-20T14:46:33;1.02;;;0.50;;
55170;SDS011;41060;47.510;8.680;2023-12-20T14:49:00;0.65;;;0.40;;
55170;SDS011;41060;47.510;8.680;2023-12-20T14:51:28;3.17;;;1.02;;
55170;SDS011;41060;47.510;8.680;2023-12-20T14:53:56;0.45;;;0.45;;
55170;SDS011;41060;47.510;8.680;2023-12-20T14:56:23;1.17;;;0.63;;
55170;SDS011;41060;47.510;8.680;2023-12-20T14:58:53;0.88;;;0.60;;
55170;SDS011;41060;47.510;8.680;2023-12-20T15:01:20;1.10;;;0.60;;